sensor_id;sensor_type;location;lat;lon;timestamp;temperature;humidity
19930;DHT22;10127;47.780;9.606;2023-06-22T00:00:49;21.70;99.90
19930;DHT22;10127;47.780;9.606;2023-06-22T00:03:15;21.70;99.90
19930;DHT22;10127;47.780;9.606;2023-06-22T00:05:40;21.70;99.90
19930;DHT22;10127;47.780;9.606;2023-06-22T00:08:06;21.60;99.90
19930;DHT22;10127;47.780;9.606;2023-06-22T00:10:32;21.60;99.90
19930;DHT22;10127;47.780;9.606;2023-06-22T00:12:57;21.60;99.90
19930;DHT22;10127;47.780;9.606;2023-06-22T00:15:23;21.60;99.90
19930;DHT22;10127;47.780;9.606;2023-06-22T00:17:49;21.50;99.90
19930;DHT22;10127;47.780;9.606;2023-06-22T00:20:15;21.40;99.90
19930;DHT22;10127;47.780;9.606;2023-06-22T00:22:42;21.40;99.90
19930;DHT22;10127;47.780;9.606;2023-06-22T00:25:09;21.40;99.90
19930;DHT22;10127;47.780;9.606;2023-06-22T00:27:35;21.40;99.90
19930;DHT22;10127;47.780;9.606;2023-06-22T00:30:01;21.30;99.90
19930;DHT22;10127;47.780;9.606;2023-06-22T00:32:26;21.30;99.90
19930;DHT22;10127;47.780;9.606;2023-06-22T00:34:52;21.30;99.90
19930;DHT22;10127;47.780;9.606;2023-06-22T00:37:18;21.20;99.90
19930;DHT22;10127;47.780;9.606;2023-06-22T00:39:43;21.30;99.90
19930;DHT22;10127;47.780;9.606;2023-06-22T00:42:09;21.20;99.90
19930;DHT22;10127;47.780;9.606;2023-06-22T00:44:35;21.10;99.90
19930;DHT22;10127;47.780;9.606;2023-06-22T00:47:02;21.10;99.90
19930;DHT22;10127;47.780;9.606;2023-06-22T00:49:28;21.20;99.90
19930;DHT22;10127;47.780;9.606;2023-06-22T00:51:54;21.20;99.90
19930;DHT22;10127;47.780;9.606;2023-06-22T00:54:20;21.20;99.90
19930;DHT22;10127;47.780;9.606;2023-06-22T00:56:53;21.10;99.90
19930;DHT22;10127;47.780;9.606;2023-06-22T00:59:20;21.10;99.90
19930;DHT22;10127;47.780;9.606;2023-06-22T01:01:46;21.10;99.90
19930;DHT22;10127;47.780;9.606;2023-06-22T01:04:12;21.10;99.90
19930;DHT22;10127;47.780;9.606;2023-06-22T01:07:00;21.00;99.90
19930;DHT22;10127;47.780;9.606;2023-06-22T01:09:33;21.00;99.90
19930;DHT22;10127;47.780;9.606;2023-06-22T01:12:03;20.80;99.90
19930;DHT22;10127;47.780;9.606;2023-06-22T01:15:30;20.80;99.90
19930;DHT22;10127;47.780;9.606;2023-06-22T01:17:29;20.80;99.90
19930;DHT22;10127;47.780;9.606;2023-06-22T01:19:55;20.70;99.90
19930;DHT22;10127;47.780;9.606;2023-06-22T01:22:31;20.70;99.90
19930;DHT22;10127;47.780;9.606;2023-06-22T01:25:12;20.60;99.90
19930;DHT22;10127;47.780;9.606;2023-06-22T01:30:26;20.60;99.90
19930;DHT22;10127;47.780;9.606;2023-06-22T01:32:53;20.50;99.90
19930;DHT22;10127;47.780;9.606;2023-06-22T01:35:20;20.50;99.90
19930;DHT22;10127;47.780;9.606;2023-06-22T01:37:47;20.40;99.90
19930;DHT22;10127;47.780;9.606;2023-06-22T01:40:13;20.40;99.90
19930;DHT22;10127;47.780;9.606;2023-06-22T01:42:40;20.40;99.90
19930;DHT22;10127;47.780;9.606;2023-06-22T01:45:07;20.40;99.90
19930;DHT22;10127;47.780;9.606;2023-06-22T01:47:34;20.40;99.90
19930;DHT22;10127;47.780;9.606;2023-06-22T01:49:59;20.40;99.90
19930;DHT22;10127;47.780;9.606;2023-06-22T01:52:25;20.30;99.90
19930;DHT22;10127;47.780;9.606;2023-06-22T01:54:51;20.30;99.90
19930;DHT22;10127;47.780;9.606;2023-06-22T01:57:16;20.20;99.90
19930;DHT22;10127;47.780;9.606;2023-06-22T02:00:12;20.20;99.90
19930;DHT22;10127;47.780;9.606;2023-06-22T02:02:45;20.20;99.90
19930;DHT22;10127;47.780;9.606;2023-06-22T02:05:16;20.10;99.90
19930;DHT22;10127;47.780;9.606;2023-06-22T02:07:51;20.10;99.90
19930;DHT22;10127;47.780;9.606;2023-06-22T02:10:20;20.10;99.90
19930;DHT22;10127;47.780;9.606;2023-06-22T02:12:46;20.10;99.90
19930;DHT22;10127;47.780;9.606;2023-06-22T02:15:12;20.20;99.90
19930;DHT22;10127;47.780;9.606;2023-06-22T02:17:39;20.10;99.90
19930;DHT22;10127;47.780;9.606;2023-06-22T02:20:12;20.10;99.90
19930;DHT22;10127;47.780;9.606;2023-06-22T02:22:38;20.00;99.90
19930;DHT22;10127;47.780;9.606;2023-06-22T02:25:04;20.10;99.90
19930;DHT22;10127;47.780;9.606;2023-06-22T02:27:30;20.10;99.90
19930;DHT22;10127;47.780;9.606;2023-06-22T02:29:55;20.10;99.90
19930;DHT22;10127;47.780;9.606;2023-06-22T02:32:21;20.10;99.90
19930;DHT22;10127;47.780;9.606;2023-06-22T02:34:46;20.10;99.90
19930;DHT22;10127;47.780;9.606;2023-06-22T02:37:16;20.10;99.90
19930;DHT22;10127;47.780;9.606;2023-06-22T02:39:42;20.10;99.90
19930;DHT22;10127;47.780;9.606;2023-06-22T02:42:07;20.10;99.90
19930;DHT22;10127;47.780;9.606;2023-06-22T02:44:33;20.10;99.90
19930;DHT22;10127;47.780;9.606;2023-06-22T02:46:59;20.10;99.90
19930;DHT22;10127;47.780;9.606;2023-06-22T02:49:24;20.10;99.90
19930;DHT22;10127;47.780;9.606;2023-06-22T02:51:50;20.10;99.90
19930;DHT22;10127;47.780;9.606;2023-06-22T02:54:16;20.10;99.90
19930;DHT22;10127;47.780;9.606;2023-06-22T02:56:42;20.10;99.90
19930;DHT22;10127;47.780;9.606;2023-06-22T02:59:09;20.10;99.90
19930;DHT22;10127;47.780;9.606;2023-06-22T03:01:36;20.20;99.90
19930;DHT22;10127;47.780;9.606;2023-06-22T03:04:08;20.20;99.90
19930;DHT22;10127;47.780;9.606;2023-06-22T03:06:35;20.20;99.90
19930;DHT22;10127;47.780;9.606;2023-06-22T03:09:03;20.20;99.90
19930;DHT22;10127;47.780;9.606;2023-06-22T03:11:33;20.20;99.90
19930;DHT22;10127;47.780;9.606;2023-06-22T03:14:00;20.20;99.90
19930;DHT22;10127;47.780;9.606;2023-06-22T03:16:26;20.20;99.90
19930;DHT22;10127;47.780;9.606;2023-06-22T03:18:52;20.20;99.90
19930;DHT22;10127;47.780;9.606;2023-06-22T03:21:19;20.20;99.90
19930;DHT22;10127;47.780;9.606;2023-06-22T03:23:45;20.30;99.90
19930;DHT22;10127;47.780;9.606;2023-06-22T03:26:11;20.20;99.90
19930;DHT22;10127;47.780;9.606;2023-06-22T03:28:37;20.20;99.90
19930;DHT22;10127;47.780;9.606;2023-06-22T03:31:03;20.20;99.90
19930;DHT22;10127;47.780;9.606;2023-06-22T03:33:29;20.10;99.90
19930;DHT22;10127;47.780;9.606;2023-06-22T03:35:55;20.10;99.90
19930;DHT22;10127;47.780;9.606;2023-06-22T03:38:21;20.10;99.90
19930;DHT22;10127;47.780;9.606;2023-06-22T03:40:46;20.00;99.90
19930;DHT22;10127;47.780;9.606;2023-06-22T03:43:12;20.00;99.90
19930;DHT22;10127;47.780;9.606;2023-06-22T03:45:37;20.00;99.90
19930;DHT22;10127;47.780;9.606;2023-06-22T03:48:03;20.00;99.90
19930;DHT22;10127;47.780;9.606;2023-06-22T03:50:29;20.00;99.90
19930;DHT22;10127;47.780;9.606;2023-06-22T03:52:55;20.10;99.90
19930;DHT22;10127;47.780;9.606;2023-06-22T03:55:21;20.10;99.90
19930;DHT22;10127;47.780;9.606;2023-06-22T03:57:47;20.20;99.90
19930;DHT22;10127;47.780;9.606;2023-06-22T04:00:19;20.20;99.90
19930;DHT22;10127;47.780;9.606;2023-06-22T04:02:44;20.20;99.90
19930;DHT22;10127;47.780;9.606;2023-06-22T04:05:10;20.20;99.90
19930;DHT22;10127;47.780;9.606;2023-06-22T04:07:35;20.30;99.90
19930;DHT22;10127;47.780;9.606;2023-06-22T04:10:06;20.20;99.90
19930;DHT22;10127;47.780;9.606;2023-06-22T04:12:33;20.20;99.90
19930;DHT22;10127;47.780;9.606;2023-06-22T04:14:58;20.20;99.90
19930;DHT22;10127;47.780;9.606;2023-06-22T04:17:24;20.20;99.90
19930;DHT22;10127;47.780;9.606;2023-06-22T04:19:51;20.20;99.90
19930;DHT22;10127;47.780;9.606;2023-06-22T04:22:16;20.20;99.90
19930;DHT22;10127;47.780;9.606;2023-06-22T04:24:42;20.10;99.90
19930;DHT22;10127;47.780;9.606;2023-06-22T04:27:08;20.10;99.90
19930;DHT22;10127;47.780;9.606;2023-06-22T04:29:33;20.20;99.90
19930;DHT22;10127;47.780;9.606;2023-06-22T04:31:59;20.20;99.90
19930;DHT22;10127;47.780;9.606;2023-06-22T04:34:28;20.30;99.90
19930;DHT22;10127;47.780;9.606;2023-06-22T04:36:54;20.40;99.90
19930;DHT22;10127;47.780;9.606;2023-06-22T04:39:20;20.40;99.90
19930;DHT22;10127;47.780;9.606;2023-06-22T04:41:46;20.60;99.90
19930;DHT22;10127;47.780;9.606;2023-06-22T04:44:12;20.50;99.90
19930;DHT22;10127;47.780;9.606;2023-06-22T04:46:39;20.40;99.90
19930;DHT22;10127;47.780;9.606;2023-06-22T04:49:18;20.30;99.90
19930;DHT22;10127;47.780;9.606;2023-06-22T04:51:45;20.30;99.90
19930;DHT22;10127;47.780;9.606;2023-06-22T04:54:10;20.40;99.90
19930;DHT22;10127;47.780;9.606;2023-06-22T04:56:36;20.60;99.90
19930;DHT22;10127;47.780;9.606;2023-06-22T04:59:02;20.50;99.90
19930;DHT22;10127;47.780;9.606;2023-06-22T05:01:29;20.60;99.90
19930;DHT22;10127;47.780;9.606;2023-06-22T05:03:56;20.60;99.90
19930;DHT22;10127;47.780;9.606;2023-06-22T05:06:25;20.60;99.90
19930;DHT22;10127;47.780;9.606;2023-06-22T05:08:54;20.60;99.90
19930;DHT22;10127;47.780;9.606;2023-06-22T05:11:25;20.60;99.90
19930;DHT22;10127;47.780;9.606;2023-06-22T05:13:50;20.60;99.90
19930;DHT22;10127;47.780;9.606;2023-06-22T05:16:16;20.60;99.90
19930;DHT22;10127;47.780;9.606;2023-06-22T05:18:42;20.60;99.90
19930;DHT22;10127;47.780;9.606;2023-06-22T05:21:09;20.60;99.90
19930;DHT22;10127;47.780;9.606;2023-06-22T05:23:42;20.80;99.90
19930;DHT22;10127;47.780;9.606;2023-06-22T05:26:07;20.80;99.90
19930;DHT22;10127;47.780;9.606;2023-06-22T05:28:35;20.70;99.90
19930;DHT22;10127;47.780;9.606;2023-06-22T05:31:01;20.80;99.90
19930;DHT22;10127;47.780;9.606;2023-06-22T05:33:33;20.90;99.90
19930;DHT22;10127;47.780;9.606;2023-06-22T05:35:59;20.90;99.90
19930;DHT22;10127;47.780;9.606;2023-06-22T05:38:24;20.90;99.90
19930;DHT22;10127;47.780;9.606;2023-06-22T05:40:50;20.90;99.90
19930;DHT22;10127;47.780;9.606;2023-06-22T05:43:16;21.00;99.90
19930;DHT22;10127;47.780;9.606;2023-06-22T05:45:41;21.00;99.90
19930;DHT22;10127;47.780;9.606;2023-06-22T05:48:07;21.00;99.90
19930;DHT22;10127;47.780;9.606;2023-06-22T05:50:32;21.10;99.90
19930;DHT22;10127;47.780;9.606;2023-06-22T05:52:58;21.20;99.90
19930;DHT22;10127;47.780;9.606;2023-06-22T05:55:24;21.20;99.90
19930;DHT22;10127;47.780;9.606;2023-06-22T05:57:49;21.30;99.90
19930;DHT22;10127;47.780;9.606;2023-06-22T06:00:15;21.30;99.90
19930;DHT22;10127;47.780;9.606;2023-06-22T06:02:41;21.30;99.90
19930;DHT22;10127;47.780;9.606;2023-06-22T06:05:11;21.40;99.90
19930;DHT22;10127;47.780;9.606;2023-06-22T06:07:36;21.50;99.90
19930;DHT22;10127;47.780;9.606;2023-06-22T06:10:03;21.50;99.90
19930;DHT22;10127;47.780;9.606;2023-06-22T06:12:30;21.60;99.90
19930;DHT22;10127;47.780;9.606;2023-06-22T06:14:55;21.70;99.90
19930;DHT22;10127;47.780;9.606;2023-06-22T06:17:22;21.70;99.90
19930;DHT22;10127;47.780;9.606;2023-06-22T06:19:47;21.70;99.90
19930;DHT22;10127;47.780;9.606;2023-06-22T06:22:13;21.60;99.90
19930;DHT22;10127;47.780;9.606;2023-06-22T06:24:39;21.70;99.90
19930;DHT22;10127;47.780;9.606;2023-06-22T06:27:04;21.70;99.90
19930;DHT22;10127;47.780;9.606;2023-06-22T06:29:31;21.80;99.90
19930;DHT22;10127;47.780;9.606;2023-06-22T06:31:56;21.80;99.90
19930;DHT22;10127;47.780;9.606;2023-06-22T06:34:22;22.00;99.90
19930;DHT22;10127;47.780;9.606;2023-06-22T06:36:48;22.00;99.90
19930;DHT22;10127;47.780;9.606;2023-06-22T06:39:13;22.20;99.90
19930;DHT22;10127;47.780;9.606;2023-06-22T06:41:39;22.20;99.90
19930;DHT22;10127;47.780;9.606;2023-06-22T06:44:05;22.20;99.90
19930;DHT22;10127;47.780;9.606;2023-06-22T06:46:30;22.20;99.90
19930;DHT22;10127;47.780;9.606;2023-06-22T06:48:56;22.20;99.90
19930;DHT22;10127;47.780;9.606;2023-06-22T06:51:21;22.20;99.90
19930;DHT22;10127;47.780;9.606;2023-06-22T06:53:47;22.20;99.90
19930;DHT22;10127;47.780;9.606;2023-06-22T06:56:12;22.20;99.90
19930;DHT22;10127;47.780;9.606;2023-06-22T06:58:41;22.30;99.90
19930;DHT22;10127;47.780;9.606;2023-06-22T07:01:08;22.40;99.90
19930;DHT22;10127;47.780;9.606;2023-06-22T07:03:34;22.50;99.90
19930;DHT22;10127;47.780;9.606;2023-06-22T07:06:00;22.50;99.90
19930;DHT22;10127;47.780;9.606;2023-06-22T07:08:26;22.60;99.90
19930;DHT22;10127;47.780;9.606;2023-06-22T07:10:54;22.60;99.90
19930;DHT22;10127;47.780;9.606;2023-06-22T07:13:20;22.70;99.90
19930;DHT22;10127;47.780;9.606;2023-06-22T07:15:46;22.80;99.90
19930;DHT22;10127;47.780;9.606;2023-06-22T07:18:12;22.80;99.90
19930;DHT22;10127;47.780;9.606;2023-06-22T07:20:37;22.80;99.90
19930;DHT22;10127;47.780;9.606;2023-06-22T07:23:04;22.80;99.90
19930;DHT22;10127;47.780;9.606;2023-06-22T07:25:30;22.90;99.90
19930;DHT22;10127;47.780;9.606;2023-06-22T07:28:06;23.00;99.90
19930;DHT22;10127;47.780;9.606;2023-06-22T07:30:33;23.00;99.90
19930;DHT22;10127;47.780;9.606;2023-06-22T07:33:00;23.00;99.90
19930;DHT22;10127;47.780;9.606;2023-06-22T07:35:30;23.10;99.90
19930;DHT22;10127;47.780;9.606;2023-06-22T07:37:56;23.20;99.90
19930;DHT22;10127;47.780;9.606;2023-06-22T07:40:21;23.30;99.90
19930;DHT22;10127;47.780;9.606;2023-06-22T07:42:47;23.50;99.90
19930;DHT22;10127;47.780;9.606;2023-06-22T07:45:17;23.50;99.90
19930;DHT22;10127;47.780;9.606;2023-06-22T07:47:43;23.60;99.90
19930;DHT22;10127;47.780;9.606;2023-06-22T07:50:09;23.60;99.90
19930;DHT22;10127;47.780;9.606;2023-06-22T07:52:35;23.50;99.90
19930;DHT22;10127;47.780;9.606;2023-06-22T07:55:01;23.60;99.90
19930;DHT22;10127;47.780;9.606;2023-06-22T07:57:27;23.70;99.90
19930;DHT22;10127;47.780;9.606;2023-06-22T08:00:05;23.80;99.90
19930;DHT22;10127;47.780;9.606;2023-06-22T08:02:41;23.90;99.90
19930;DHT22;10127;47.780;9.606;2023-06-22T08:05:08;23.90;99.90
19930;DHT22;10127;47.780;9.606;2023-06-22T08:07:35;24.00;99.90
19930;DHT22;10127;47.780;9.606;2023-06-22T08:10:03;24.00;99.90
19930;DHT22;10127;47.780;9.606;2023-06-22T08:12:29;24.10;99.90
19930;DHT22;10127;47.780;9.606;2023-06-22T08:14:55;24.20;99.90
19930;DHT22;10127;47.780;9.606;2023-06-22T08:17:22;24.20;99.90
19930;DHT22;10127;47.780;9.606;2023-06-22T08:19:48;24.30;99.90
19930;DHT22;10127;47.780;9.606;2023-06-22T08:22:14;24.50;99.90
19930;DHT22;10127;47.780;9.606;2023-06-22T08:24:39;24.60;99.90
19930;DHT22;10127;47.780;9.606;2023-06-22T08:27:07;24.70;99.90
19930;DHT22;10127;47.780;9.606;2023-06-22T08:29:34;25.00;99.90
19930;DHT22;10127;47.780;9.606;2023-06-22T08:32:00;25.10;99.90
19930;DHT22;10127;47.780;9.606;2023-06-22T08:34:26;25.20;99.90
19930;DHT22;10127;47.780;9.606;2023-06-22T08:36:53;25.60;99.90
19930;DHT22;10127;47.780;9.606;2023-06-22T08:39:21;25.80;99.90
19930;DHT22;10127;47.780;9.606;2023-06-22T08:41:48;25.90;99.90
19930;DHT22;10127;47.780;9.606;2023-06-22T08:44:14;25.90;99.90
19930;DHT22;10127;47.780;9.606;2023-06-22T08:46:39;25.90;99.90
19930;DHT22;10127;47.780;9.606;2023-06-22T08:49:06;26.00;99.90
19930;DHT22;10127;47.780;9.606;2023-06-22T08:51:32;26.00;99.90
19930;DHT22;10127;47.780;9.606;2023-06-22T08:53:58;26.00;99.90
19930;DHT22;10127;47.780;9.606;2023-06-22T08:56:23;25.90;99.90
19930;DHT22;10127;47.780;9.606;2023-06-22T08:58:49;25.90;99.90
19930;DHT22;10127;47.780;9.606;2023-06-22T09:01:15;25.90;99.90
19930;DHT22;10127;47.780;9.606;2023-06-22T09:03:41;25.90;99.90
19930;DHT22;10127;47.780;9.606;2023-06-22T09:06:07;26.00;99.90
19930;DHT22;10127;47.780;9.606;2023-06-22T09:08:35;26.20;99.90
19930;DHT22;10127;47.780;9.606;2023-06-22T09:11:00;26.30;99.90
19930;DHT22;10127;47.780;9.606;2023-06-22T09:13:30;26.30;99.90
19930;DHT22;10127;47.780;9.606;2023-06-22T09:15:55;26.40;99.90
19930;DHT22;10127;47.780;9.606;2023-06-22T09:18:21;26.60;99.90
19930;DHT22;10127;47.780;9.606;2023-06-22T09:20:46;26.70;99.90
19930;DHT22;10127;47.780;9.606;2023-06-22T09:23:12;26.70;99.90
19930;DHT22;10127;47.780;9.606;2023-06-22T09:25:38;26.60;99.90
19930;DHT22;10127;47.780;9.606;2023-06-22T09:28:03;26.60;99.90
19930;DHT22;10127;47.780;9.606;2023-06-22T09:30:29;26.70;99.90
19930;DHT22;10127;47.780;9.606;2023-06-22T09:32:54;26.50;99.90
19930;DHT22;10127;47.780;9.606;2023-06-22T09:35:20;26.50;99.90
19930;DHT22;10127;47.780;9.606;2023-06-22T09:37:46;26.50;99.90
19930;DHT22;10127;47.780;9.606;2023-06-22T09:40:11;26.50;99.90
19930;DHT22;10127;47.780;9.606;2023-06-22T09:42:38;26.50;99.90
19930;DHT22;10127;47.780;9.606;2023-06-22T09:45:05;26.60;99.90
19930;DHT22;10127;47.780;9.606;2023-06-22T09:47:31;26.80;99.90
19930;DHT22;10127;47.780;9.606;2023-06-22T09:49:56;26.80;99.90
19930;DHT22;10127;47.780;9.606;2023-06-22T09:52:24;26.90;99.90
19930;DHT22;10127;47.780;9.606;2023-06-22T09:54:50;26.90;99.90
19930;DHT22;10127;47.780;9.606;2023-06-22T09:57:15;27.00;99.90
19930;DHT22;10127;47.780;9.606;2023-06-22T09:59:41;27.10;99.90
19930;DHT22;10127;47.780;9.606;2023-06-22T10:02:07;27.30;99.90
19930;DHT22;10127;47.780;9.606;2023-06-22T10:04:36;27.50;99.90
19930;DHT22;10127;47.780;9.606;2023-06-22T10:07:02;27.60;99.90
19930;DHT22;10127;47.780;9.606;2023-06-22T10:09:28;27.70;99.90
19930;DHT22;10127;47.780;9.606;2023-06-22T10:11:53;27.80;99.90
19930;DHT22;10127;47.780;9.606;2023-06-22T10:14:20;27.90;99.90
19930;DHT22;10127;47.780;9.606;2023-06-22T10:16:45;28.00;99.90
19930;DHT22;10127;47.780;9.606;2023-06-22T10:19:11;28.10;99.90
19930;DHT22;10127;47.780;9.606;2023-06-22T10:21:37;28.20;99.90
19930;DHT22;10127;47.780;9.606;2023-06-22T10:24:03;28.20;99.90
19930;DHT22;10127;47.780;9.606;2023-06-22T10:26:32;28.20;99.90
19930;DHT22;10127;47.780;9.606;2023-06-22T10:28:58;28.20;99.90
19930;DHT22;10127;47.780;9.606;2023-06-22T10:31:23;28.20;99.90
19930;DHT22;10127;47.780;9.606;2023-06-22T10:33:49;28.10;99.90
19930;DHT22;10127;47.780;9.606;2023-06-22T10:36:15;28.10;99.90
19930;DHT22;10127;47.780;9.606;2023-06-22T10:38:40;28.10;99.90
19930;DHT22;10127;47.780;9.606;2023-06-22T10:41:06;28.10;99.90
19930;DHT22;10127;47.780;9.606;2023-06-22T10:43:32;28.10;99.90
19930;DHT22;10127;47.780;9.606;2023-06-22T10:45:58;28.20;99.90
19930;DHT22;10127;47.780;9.606;2023-06-22T10:48:23;28.20;99.90
19930;DHT22;10127;47.780;9.606;2023-06-22T10:50:49;28.30;99.90
19930;DHT22;10127;47.780;9.606;2023-06-22T10:53:14;28.50;99.90
19930;DHT22;10127;47.780;9.606;2023-06-22T10:55:40;28.60;99.90
19930;DHT22;10127;47.780;9.606;2023-06-22T10:58:05;28.70;99.90
19930;DHT22;10127;47.780;9.606;2023-06-22T11:00:31;28.70;99.90
19930;DHT22;10127;47.780;9.606;2023-06-22T11:02:57;28.70;99.70
19930;DHT22;10127;47.780;9.606;2023-06-22T11:05:23;28.70;99.80
19930;DHT22;10127;47.780;9.606;2023-06-22T11:07:49;28.70;99.00
19930;DHT22;10127;47.780;9.606;2023-06-22T11:10:15;28.60;98.80
19930;DHT22;10127;47.780;9.606;2023-06-22T11:12:40;28.70;99.10
19930;DHT22;10127;47.780;9.606;2023-06-22T11:15:08;29.00;98.60
19930;DHT22;10127;47.780;9.606;2023-06-22T11:17:34;29.10;97.80
19930;DHT22;10127;47.780;9.606;2023-06-22T11:20:00;29.20;97.20
19930;DHT22;10127;47.780;9.606;2023-06-22T11:22:26;29.30;96.50
19930;DHT22;10127;47.780;9.606;2023-06-22T11:24:52;29.40;97.10
19930;DHT22;10127;47.780;9.606;2023-06-22T11:27:17;29.30;96.30
19930;DHT22;10127;47.780;9.606;2023-06-22T11:29:43;29.40;96.70
19930;DHT22;10127;47.780;9.606;2023-06-22T11:32:08;29.70;96.50
19930;DHT22;10127;47.780;9.606;2023-06-22T11:34:34;30.00;95.70
19930;DHT22;10127;47.780;9.606;2023-06-22T11:37:00;30.20;95.70
19930;DHT22;10127;47.780;9.606;2023-06-22T11:39:26;30.10;96.00
19930;DHT22;10127;47.780;9.606;2023-06-22T11:41:51;30.00;95.20
19930;DHT22;10127;47.780;9.606;2023-06-22T11:44:17;29.70;94.80
19930;DHT22;10127;47.780;9.606;2023-06-22T11:46:42;29.70;95.40
19930;DHT22;10127;47.780;9.606;2023-06-22T11:49:08;29.60;96.30
19930;DHT22;10127;47.780;9.606;2023-06-22T11:51:34;29.80;96.20
19930;DHT22;10127;47.780;9.606;2023-06-22T11:53:59;29.80;96.50
19930;DHT22;10127;47.780;9.606;2023-06-22T11:56:25;30.00;96.10
19930;DHT22;10127;47.780;9.606;2023-06-22T11:58:51;30.20;95.50
19930;DHT22;10127;47.780;9.606;2023-06-22T12:01:16;30.30;95.00
19930;DHT22;10127;47.780;9.606;2023-06-22T12:03:42;30.30;94.50
19930;DHT22;10127;47.780;9.606;2023-06-22T12:06:09;30.30;94.40
19930;DHT22;10127;47.780;9.606;2023-06-22T12:08:35;30.20;94.50
19930;DHT22;10127;47.780;9.606;2023-06-22T12:11:00;30.20;94.30
19930;DHT22;10127;47.780;9.606;2023-06-22T12:13:26;30.10;94.00
19930;DHT22;10127;47.780;9.606;2023-06-22T12:15:51;30.00;94.00
19930;DHT22;10127;47.780;9.606;2023-06-22T12:18:20;30.00;93.60
19930;DHT22;10127;47.780;9.606;2023-06-22T12:20:48;30.00;93.50
19930;DHT22;10127;47.780;9.606;2023-06-22T12:23:15;30.10;93.70
19930;DHT22;10127;47.780;9.606;2023-06-22T12:25:40;30.10;93.20
19930;DHT22;10127;47.780;9.606;2023-06-22T12:28:06;30.20;93.50
19930;DHT22;10127;47.780;9.606;2023-06-22T12:30:34;30.30;93.30
19930;DHT22;10127;47.780;9.606;2023-06-22T12:33:00;30.30;93.40
19930;DHT22;10127;47.780;9.606;2023-06-22T12:35:26;30.20;93.30
19930;DHT22;10127;47.780;9.606;2023-06-22T12:37:51;30.10;93.60
19930;DHT22;10127;47.780;9.606;2023-06-22T12:40:18;30.10;93.60
19930;DHT22;10127;47.780;9.606;2023-06-22T12:42:44;30.20;93.60
19930;DHT22;10127;47.780;9.606;2023-06-22T12:45:10;30.30;93.60
19930;DHT22;10127;47.780;9.606;2023-06-22T12:47:36;30.30;93.40
19930;DHT22;10127;47.780;9.606;2023-06-22T12:50:02;30.40;93.40
19930;DHT22;10127;47.780;9.606;2023-06-22T12:52:30;30.50;93.50
19930;DHT22;10127;47.780;9.606;2023-06-22T12:54:56;30.60;93.30
19930;DHT22;10127;47.780;9.606;2023-06-22T12:57:22;30.70;93.20
19930;DHT22;10127;47.780;9.606;2023-06-22T12:59:48;30.60;93.20
19930;DHT22;10127;47.780;9.606;2023-06-22T13:02:14;30.60;92.80
19930;DHT22;10127;47.780;9.606;2023-06-22T13:04:40;30.50;92.70
19930;DHT22;10127;47.780;9.606;2023-06-22T13:07:05;30.60;93.00
19930;DHT22;10127;47.780;9.606;2023-06-22T13:09:31;30.60;93.10
19930;DHT22;10127;47.780;9.606;2023-06-22T13:11:57;30.70;92.60
19930;DHT22;10127;47.780;9.606;2023-06-22T13:14:22;30.70;92.40
19930;DHT22;10127;47.780;9.606;2023-06-22T13:16:48;30.70;92.80
19930;DHT22;10127;47.780;9.606;2023-06-22T13:19:13;30.80;92.40
19930;DHT22;10127;47.780;9.606;2023-06-22T13:21:40;31.00;92.10
19930;DHT22;10127;47.780;9.606;2023-06-22T13:24:06;31.00;91.60
19930;DHT22;10127;47.780;9.606;2023-06-22T13:26:31;31.10;91.60
19930;DHT22;10127;47.780;9.606;2023-06-22T13:28:57;31.10;91.70
19930;DHT22;10127;47.780;9.606;2023-06-22T13:31:23;31.10;91.10
19930;DHT22;10127;47.780;9.606;2023-06-22T13:33:48;31.20;91.50
19930;DHT22;10127;47.780;9.606;2023-06-22T13:36:17;31.40;91.40
19930;DHT22;10127;47.780;9.606;2023-06-22T13:38:43;31.60;91.10
19930;DHT22;10127;47.780;9.606;2023-06-22T13:41:08;31.80;90.70
19930;DHT22;10127;47.780;9.606;2023-06-22T13:43:34;31.80;90.40
19930;DHT22;10127;47.780;9.606;2023-06-22T13:46:07;31.60;90.60
19930;DHT22;10127;47.780;9.606;2023-06-22T13:48:32;31.70;90.60
19930;DHT22;10127;47.780;9.606;2023-06-22T13:50:59;31.80;90.10
19930;DHT22;10127;47.780;9.606;2023-06-22T13:53:25;31.90;89.40
19930;DHT22;10127;47.780;9.606;2023-06-22T13:55:51;31.90;89.50
19930;DHT22;10127;47.780;9.606;2023-06-22T13:58:17;32.00;89.30
19930;DHT22;10127;47.780;9.606;2023-06-22T14:00:45;32.00;89.40
19930;DHT22;10127;47.780;9.606;2023-06-22T14:03:10;32.00;89.80
19930;DHT22;10127;47.780;9.606;2023-06-22T14:05:36;32.10;88.80
19930;DHT22;10127;47.780;9.606;2023-06-22T14:08:01;32.20;88.00
19930;DHT22;10127;47.780;9.606;2023-06-22T14:10:27;32.20;87.70
19930;DHT22;10127;47.780;9.606;2023-06-22T14:12:53;32.20;86.60
19930;DHT22;10127;47.780;9.606;2023-06-22T14:15:18;32.50;85.70
19930;DHT22;10127;47.780;9.606;2023-06-22T14:17:44;32.70;85.90
19930;DHT22;10127;47.780;9.606;2023-06-22T14:20:10;32.60;85.90
19930;DHT22;10127;47.780;9.606;2023-06-22T14:22:36;32.70;85.50
19930;DHT22;10127;47.780;9.606;2023-06-22T14:25:02;32.70;84.80
19930;DHT22;10127;47.780;9.606;2023-06-22T14:27:27;32.70;85.00
19930;DHT22;10127;47.780;9.606;2023-06-22T14:29:53;32.50;85.40
19930;DHT22;10127;47.780;9.606;2023-06-22T14:32:27;32.40;87.30
19930;DHT22;10127;47.780;9.606;2023-06-22T14:34:59;32.40;87.80
19930;DHT22;10127;47.780;9.606;2023-06-22T14:37:31;32.40;86.40
19930;DHT22;10127;47.780;9.606;2023-06-22T14:39:56;32.40;86.70
19930;DHT22;10127;47.780;9.606;2023-06-22T14:42:22;32.40;86.80
19930;DHT22;10127;47.780;9.606;2023-06-22T14:44:48;32.70;87.20
19930;DHT22;10127;47.780;9.606;2023-06-22T14:47:14;32.90;86.90
19930;DHT22;10127;47.780;9.606;2023-06-22T14:49:39;32.80;87.20
19930;DHT22;10127;47.780;9.606;2023-06-22T14:52:06;32.90;86.60
19930;DHT22;10127;47.780;9.606;2023-06-22T14:54:32;32.60;89.30
19930;DHT22;10127;47.780;9.606;2023-06-22T14:56:58;32.10;90.70
19930;DHT22;10127;47.780;9.606;2023-06-22T14:59:23;31.50;91.60
19930;DHT22;10127;47.780;9.606;2023-06-22T15:01:49;31.10;92.30
19930;DHT22;10127;47.780;9.606;2023-06-22T15:04:15;30.80;93.30
19930;DHT22;10127;47.780;9.606;2023-06-22T15:06:41;30.90;93.40
19930;DHT22;10127;47.780;9.606;2023-06-22T15:09:07;30.60;93.90
19930;DHT22;10127;47.780;9.606;2023-06-22T15:11:32;30.40;94.30
19930;DHT22;10127;47.780;9.606;2023-06-22T15:13:59;30.30;94.60
19930;DHT22;10127;47.780;9.606;2023-06-22T15:16:25;30.60;94.00
19930;DHT22;10127;47.780;9.606;2023-06-22T15:18:51;31.00;93.80
19930;DHT22;10127;47.780;9.606;2023-06-22T15:21:23;30.90;92.90
19930;DHT22;10127;47.780;9.606;2023-06-22T15:23:49;30.90;92.40
19930;DHT22;10127;47.780;9.606;2023-06-22T15:26:14;30.80;92.10
19930;DHT22;10127;47.780;9.606;2023-06-22T15:28:40;30.70;92.00